sensor_id;sensor_type;location;lat;lon;timestamp;pressure;altitude;pressure_sealevel;temperature
68027;BMP180;54819;48.030;14.710;2023-04-01T00:01:05;96248.80;;;12.40
68027;BMP180;54819;48.030;14.710;2023-04-01T00:03:33;96250.60;;;12.44
68027;BMP180;54819;48.030;14.710;2023-04-01T00:06:01;96251.20;;;12.50
68027;BMP180;54819;48.030;14.710;2023-04-01T00:08:28;96257.00;;;12.50
68027;BMP180;54819;48.030;14.710;2023-04-01T00:10:55;96259.00;;;12.50
68027;BMP180;54819;48.030;14.710;2023-04-01T00:13:25;96259.60;;;12.50
68027;BMP180;54819;48.030;14.710;2023-04-01T00:15:54;96259.40;;;12.50
68027;BMP180;54819;48.030;14.710;2023-04-01T00:18:24;96261.40;;;12.50
68027;BMP180;54819;48.030;14.710;2023-04-01T00:20:52;96263.20;;;12.50
68027;BMP180;54819;48.030;14.710;2023-04-01T00:23:19;96265.00;;;12.50
68027;BMP180;54819;48.030;14.710;2023-04-01T00:25:47;96268.40;;;12.50
68027;BMP180;54819;48.030;14.710;2023-04-01T00:28:19;96264.60;;;12.50
68027;BMP180;54819;48.030;14.710;2023-04-01T00:30:47;96275.00;;;12.50
68027;BMP180;54819;48.030;14.710;2023-04-01T00:33:14;96276.00;;;12.50
68027;BMP180;54819;48.030;14.710;2023-04-01T00:35:41;96267.60;;;12.48
68027;BMP180;54819;48.030;14.710;2023-04-01T00:38:08;96273.20;;;12.50
68027;BMP180;54819;48.030;14.710;2023-04-01T00:40:41;96273.40;;;12.44
68027;BMP180;54819;48.030;14.710;2023-04-01T00:43:26;96280.40;;;12.40
68027;BMP180;54819;48.030;14.710;2023-04-01T00:45:52;96285.40;;;12.40
68027;BMP180;54819;48.030;14.710;2023-04-01T00:48:42;96288.80;;;12.40
68027;BMP180;54819;48.030;14.710;2023-04-01T00:51:22;96281.60;;;12.32
68027;BMP180;54819;48.030;14.710;2023-04-01T00:53:54;96283.00;;;12.30
68027;BMP180;54819;48.030;14.710;2023-04-01T00:56:27;96278.60;;;12.30
68027;BMP180;54819;48.030;14.710;2023-04-01T00:59:10;96276.00;;;12.30
68027;BMP180;54819;48.030;14.710;2023-04-01T01:01:38;96271.20;;;12.26
68027;BMP180;54819;48.030;14.710;2023-04-01T01:04:04;96272.40;;;12.30
68027;BMP180;54819;48.030;14.710;2023-04-01T01:09:43;96262.60;;;12.22
68027;BMP180;54819;48.030;14.710;2023-04-01T01:12:40;96265.20;;;12.30
68027;BMP180;54819;48.030;14.710;2023-04-01T01:15:41;96270.20;;;12.26
68027;BMP180;54819;48.030;14.710;2023-04-01T01:27:06;96284.40;;;12.10
68027;BMP180;54819;48.030;14.710;2023-04-01T01:38:34;96278.00;;;12.04
68027;BMP180;54819;48.030;14.710;2023-04-01T01:41:06;96276.00;;;12.10
68027;BMP180;54819;48.030;14.710;2023-04-01T01:43:39;96277.40;;;12.10
68027;BMP180;54819;48.030;14.710;2023-04-01T01:46:17;96269.40;;;12.08
68027;BMP180;54819;48.030;14.710;2023-04-01T01:48:47;96266.80;;;12.08
68027;BMP180;54819;48.030;14.710;2023-04-01T01:51:16;96264.20;;;12.08
68027;BMP180;54819;48.030;14.710;2023-04-01T01:53:43;96261.60;;;12.10
68027;BMP180;54819;48.030;14.710;2023-04-01T01:56:11;96261.00;;;12.10
68027;BMP180;54819;48.030;14.710;2023-04-01T01:58:49;96263.40;;;12.10
68027;BMP180;54819;48.030;14.710;2023-04-01T02:01:25;96257.60;;;12.10
68027;BMP180;54819;48.030;14.710;2023-04-01T02:03:58;96257.40;;;12.10
68027;BMP180;54819;48.030;14.710;2023-04-01T02:06:30;96256.40;;;12.10
68027;BMP180;54819;48.030;14.710;2023-04-01T02:09:04;96259.60;;;12.10
68027;BMP180;54819;48.030;14.710;2023-04-01T02:11:49;96259.60;;;12.08
68027;BMP180;54819;48.030;14.710;2023-04-01T02:14:34;96268.40;;;12.00
68027;BMP180;54819;48.030;14.710;2023-04-01T02:17:11;96265.00;;;12.00
68027;BMP180;54819;48.030;14.710;2023-04-01T02:20:06;96260.60;;;12.00
68027;BMP180;54819;48.030;14.710;2023-04-01T02:22:43;96259.40;;;11.96
68027;BMP180;54819;48.030;14.710;2023-04-01T02:25:18;96257.80;;;12.00
68027;BMP180;54819;48.030;14.710;2023-04-01T02:27:46;96254.40;;;11.90
68027;BMP180;54819;48.030;14.710;2023-04-01T02:30:15;96254.80;;;11.90
68027;BMP180;54819;48.030;14.710;2023-04-01T02:32:43;96253.20;;;11.72
68027;BMP180;54819;48.030;14.710;2023-04-01T02:35:14;96256.20;;;11.80
68027;BMP180;54819;48.030;14.710;2023-04-01T02:37:43;96256.00;;;11.80
68027;BMP180;54819;48.030;14.710;2023-04-01T02:40:14;96258.60;;;11.80
68027;BMP180;54819;48.030;14.710;2023-04-01T02:42:41;96260.80;;;11.80
68027;BMP180;54819;48.030;14.710;2023-04-01T02:45:08;96265.20;;;11.80
68027;BMP180;54819;48.030;14.710;2023-04-01T02:47:35;96270.60;;;11.80
68027;BMP180;54819;48.030;14.710;2023-04-01T02:50:03;96269.40;;;11.68
68027;BMP180;54819;48.030;14.710;2023-04-01T02:52:30;96274.40;;;11.70
68027;BMP180;54819;48.030;14.710;2023-04-01T02:54:57;96272.00;;;11.70
68027;BMP180;54819;48.030;14.710;2023-04-01T02:57:25;96275.20;;;11.70
68027;BMP180;54819;48.030;14.710;2023-04-01T02:59:52;96270.40;;;11.70
68027;BMP180;54819;48.030;14.710;2023-04-01T03:02:19;96269.00;;;11.76
68027;BMP180;54819;48.030;14.710;2023-04-01T03:04:46;96271.80;;;11.74
68027;BMP180;54819;48.030;14.710;2023-04-01T03:07:13;96273.00;;;11.78
68027;BMP180;54819;48.030;14.710;2023-04-01T03:09:39;96274.00;;;11.72
68027;BMP180;54819;48.030;14.710;2023-04-01T03:12:07;96279.20;;;11.78
68027;BMP180;54819;48.030;14.710;2023-04-01T03:14:36;96274.60;;;11.76
68027;BMP180;54819;48.030;14.710;2023-04-01T03:17:03;96280.20;;;11.72
68027;BMP180;54819;48.030;14.710;2023-04-01T03:19:29;96283.40;;;11.78
68027;BMP180;54819;48.030;14.710;2023-04-01T03:21:57;96283.00;;;11.80
68027;BMP180;54819;48.030;14.710;2023-04-01T03:24:24;96277.00;;;11.76
68027;BMP180;54819;48.030;14.710;2023-04-01T03:26:50;96277.60;;;11.76
68027;BMP180;54819;48.030;14.710;2023-04-01T03:29:17;96277.80;;;11.80
68027;BMP180;54819;48.030;14.710;2023-04-01T03:31:44;96279.60;;;11.80
68027;BMP180;54819;48.030;14.710;2023-04-01T03:34:11;96275.40;;;11.72
68027;BMP180;54819;48.030;14.710;2023-04-01T03:36:38;96278.60;;;11.78
68027;BMP180;54819;48.030;14.710;2023-04-01T03:39:05;96279.00;;;11.80
68027;BMP180;54819;48.030;14.710;2023-04-01T03:41:37;96280.60;;;11.80
68027;BMP180;54819;48.030;14.710;2023-04-01T03:44:05;96283.40;;;11.80
68027;BMP180;54819;48.030;14.710;2023-04-01T03:46:31;96285.60;;;11.80
68027;BMP180;54819;48.030;14.710;2023-04-01T03:48:58;96279.00;;;11.80
68027;BMP180;54819;48.030;14.710;2023-04-01T03:51:25;96283.20;;;11.80
68027;BMP180;54819;48.030;14.710;2023-04-01T03:53:52;96283.00;;;11.80
68027;BMP180;54819;48.030;14.710;2023-04-01T03:56:19;96290.20;;;11.80
68027;BMP180;54819;48.030;14.710;2023-04-01T03:58:45;96288.80;;;11.80
68027;BMP180;54819;48.030;14.710;2023-04-01T04:01:19;96295.80;;;11.80
68027;BMP180;54819;48.030;14.710;2023-04-01T04:03:49;96293.60;;;11.80
68027;BMP180;54819;48.030;14.710;2023-04-01T04:06:18;96305.40;;;11.80
68027;BMP180;54819;48.030;14.710;2023-04-01T04:08:46;96310.00;;;11.70
68027;BMP180;54819;48.030;14.710;2023-04-01T04:11:13;96320.20;;;11.80
68027;BMP180;54819;48.030;14.710;2023-04-01T04:13:41;96322.20;;;11.80
68027;BMP180;54819;48.030;14.710;2023-04-01T04:16:09;96327.60;;;11.60
68027;BMP180;54819;48.030;14.710;2023-04-01T04:18:38;96325.60;;;11.60
68027;BMP180;54819;48.030;14.710;2023-04-01T04:21:05;96319.20;;;11.52
68027;BMP180;54819;48.030;14.710;2023-04-01T04:23:33;96313.20;;;11.50
68027;BMP180;54819;48.030;14.710;2023-04-01T04:26:07;96311.60;;;11.36
68027;BMP180;54819;48.030;14.710;2023-04-01T04:28:34;96302.80;;;11.30
68027;BMP180;54819;48.030;14.710;2023-04-01T04:31:03;96313.60;;;11.20
68027;BMP180;54819;48.030;14.710;2023-04-01T04:33:35;96315.80;;;11.20
68027;BMP180;54819;48.030;14.710;2023-04-01T04:36:03;96310.20;;;11.20
68027;BMP180;54819;48.030;14.710;2023-04-01T04:38:31;96314.00;;;11.02
68027;BMP180;54819;48.030;14.710;2023-04-01T04:40:58;96311.80;;;11.10
68027;BMP180;54819;48.030;14.710;2023-04-01T04:43:25;96310.60;;;11.18
68027;BMP180;54819;48.030;14.710;2023-04-01T04:45:51;96313.80;;;11.20
68027;BMP180;54819;48.030;14.710;2023-04-01T04:48:18;96314.60;;;11.20
68027;BMP180;54819;48.030;14.710;2023-04-01T04:50:49;96313.00;;;11.20
68027;BMP180;54819;48.030;14.710;2023-04-01T04:53:18;96316.60;;;11.20
68027;BMP180;54819;48.030;14.710;2023-04-01T04:55:48;96319.20;;;11.30
68027;BMP180;54819;48.030;14.710;2023-04-01T04:58:31;96314.40;;;11.30
68027;BMP180;54819;48.030;14.710;2023-04-01T05:00:58;96315.00;;;11.30
68027;BMP180;54819;48.030;14.710;2023-04-01T05:03:28;96315.40;;;11.36
68027;BMP180;54819;48.030;14.710;2023-04-01T05:05:55;96321.40;;;11.38
68027;BMP180;54819;48.030;14.710;2023-04-01T05:08:23;96324.20;;;11.36
68027;BMP180;54819;48.030;14.710;2023-04-01T05:10:49;96323.00;;;11.38
68027;BMP180;54819;48.030;14.710;2023-04-01T05:13:16;96318.40;;;11.40
68027;BMP180;54819;48.030;14.710;2023-04-01T05:15:45;96326.80;;;11.40
68027;BMP180;54819;48.030;14.710;2023-04-01T05:18:12;96318.20;;;11.50
68027;BMP180;54819;48.030;14.710;2023-04-01T05:20:38;96321.60;;;11.50
68027;BMP180;54819;48.030;14.710;2023-04-01T05:23:06;96326.80;;;11.50
68027;BMP180;54819;48.030;14.710;2023-04-01T05:25:32;96327.60;;;11.50
68027;BMP180;54819;48.030;14.710;2023-04-01T05:27:59;96329.80;;;11.56
68027;BMP180;54819;48.030;14.710;2023-04-01T05:30:26;96334.60;;;11.60
68027;BMP180;54819;48.030;14.710;2023-04-01T05:33:02;96327.00;;;11.60
68027;BMP180;54819;48.030;14.710;2023-04-01T05:35:29;96328.00;;;11.70
68027;BMP180;54819;48.030;14.710;2023-04-01T05:37:56;96332.60;;;11.70
68027;BMP180;54819;48.030;14.710;2023-04-01T05:40:23;96331.60;;;11.70
68027;BMP180;54819;48.030;14.710;2023-04-01T05:42:50;96327.00;;;11.80
68027;BMP180;54819;48.030;14.710;2023-04-01T05:45:16;96325.80;;;11.82
68027;BMP180;54819;48.030;14.710;2023-04-01T05:48:02;96339.40;;;11.90
68027;BMP180;54819;48.030;14.710;2023-04-01T05:50:34;96330.80;;;11.90
68027;BMP180;54819;48.030;14.710;2023-04-01T05:53:01;96334.80;;;12.00
68027;BMP180;54819;48.030;14.710;2023-04-01T05:55:28;96342.80;;;12.00
68027;BMP180;54819;48.030;14.710;2023-04-01T05:57:54;96341.60;;;12.00
68027;BMP180;54819;48.030;14.710;2023-04-01T06:00:21;96345.20;;;12.10
68027;BMP180;54819;48.030;14.710;2023-04-01T06:02:48;96344.00;;;12.10
68027;BMP180;54819;48.030;14.710;2023-04-01T06:05:27;96342.60;;;12.12
68027;BMP180;54819;48.030;14.710;2023-04-01T06:07:59;96345.60;;;12.20
68027;BMP180;54819;48.030;14.710;2023-04-01T06:10:58;96340.40;;;12.20
68027;BMP180;54819;48.030;14.710;2023-04-01T06:17:02;96346.40;;;12.30
68027;BMP180;54819;48.030;14.710;2023-04-01T06:19:55;96350.20;;;12.40
68027;BMP180;54819;48.030;14.710;2023-04-01T06:25:50;96352.60;;;12.60
68027;BMP180;54819;48.030;14.710;2023-04-01T06:41:06;96365.00;;;12.94
68027;BMP180;54819;48.030;14.710;2023-04-01T06:47:39;96354.20;;;13.30
68027;BMP180;54819;48.030;14.710;2023-04-01T06:50:55;96355.60;;;13.50
68027;BMP180;54819;48.030;14.710;2023-04-01T06:56:54;96356.00;;;13.66
68027;BMP180;54819;48.030;14.710;2023-04-01T06:59:30;96348.00;;;13.70
68027;BMP180;54819;48.030;14.710;2023-04-01T07:04:44;96356.60;;;13.70
68027;BMP180;54819;48.030;14.710;2023-04-01T07:07:39;96353.20;;;13.80
68027;BMP180;54819;48.030;14.710;2023-04-01T07:10:18;96348.40;;;13.90
68027;BMP180;54819;48.030;14.710;2023-04-01T07:13:12;96351.60;;;14.10
68027;BMP180;54819;48.030;14.710;2023-04-01T07:16:31;96356.60;;;14.20
68027;BMP180;54819;48.030;14.710;2023-04-01T07:19:08;96348.80;;;14.30
68027;BMP180;54819;48.030;14.710;2023-04-01T07:22:29;96349.60;;;14.50
68027;BMP180;54819;48.030;14.710;2023-04-01T07:25:25;96351.20;;;14.50
68027;BMP180;54819;48.030;14.710;2023-04-01T07:28:14;96354.80;;;14.60
68027;BMP180;54819;48.030;14.710;2023-04-01T07:31:15;96353.60;;;14.80
68027;BMP180;54819;48.030;14.710;2023-04-01T07:34:33;96356.00;;;14.90
68027;BMP180;54819;48.030;14.710;2023-04-01T07:37:15;96358.60;;;14.92
68027;BMP180;54819;48.030;14.710;2023-04-01T07:43:09;96360.40;;;15.00
68027;BMP180;54819;48.030;14.710;2023-04-01T07:46:03;96363.60;;;15.10
68027;BMP180;54819;48.030;14.710;2023-04-01T07:49:04;96367.20;;;15.20
68027;BMP180;54819;48.030;14.710;2023-04-01T07:51:53;96369.60;;;15.30
68027;BMP180;54819;48.030;14.710;2023-04-01T07:54:42;96370.40;;;15.40
68027;BMP180;54819;48.030;14.710;2023-04-01T07:57:53;96370.60;;;15.38
68027;BMP180;54819;48.030;14.710;2023-04-01T08:00:34;96362.00;;;15.40
68027;BMP180;54819;48.030;14.710;2023-04-01T08:04:08;96366.00;;;15.60
68027;BMP180;54819;48.030;14.710;2023-04-01T08:06:45;96368.40;;;15.80
68027;BMP180;54819;48.030;14.710;2023-04-01T08:09:26;96362.20;;;15.94
68027;BMP180;54819;48.030;14.710;2023-04-01T08:16:08;96366.60;;;16.00
68027;BMP180;54819;48.030;14.710;2023-04-01T08:18:46;96369.20;;;16.10
68027;BMP180;54819;48.030;14.710;2023-04-01T08:21:28;96365.20;;;16.20
68027;BMP180;54819;48.030;14.710;2023-04-01T08:24:02;96373.20;;;16.30
68027;BMP180;54819;48.030;14.710;2023-04-01T08:26:41;96369.00;;;16.26
68027;BMP180;54819;48.030;14.710;2023-04-01T08:29:44;96373.60;;;16.30
68027;BMP180;54819;48.030;14.710;2023-04-01T08:32:25;96376.00;;;16.20
68027;BMP180;54819;48.030;14.710;2023-04-01T08:38:01;96376.40;;;16.30
68027;BMP180;54819;48.030;14.710;2023-04-01T08:44:16;96370.80;;;16.30
68027;BMP180;54819;48.030;14.710;2023-04-01T08:50:09;96376.00;;;16.32
68027;BMP180;54819;48.030;14.710;2023-04-01T09:07:13;96375.60;;;16.30
68027;BMP180;54819;48.030;14.710;2023-04-01T09:13:10;96380.80;;;15.90
68027;BMP180;54819;48.030;14.710;2023-04-01T09:18:59;96384.60;;;15.90
68027;BMP180;54819;48.030;14.710;2023-04-01T09:24:35;96385.40;;;16.10
68027;BMP180;54819;48.030;14.710;2023-04-01T09:36:44;96388.60;;;16.40
68027;BMP180;54819;48.030;14.710;2023-04-01T09:39:39;96384.40;;;16.50
68027;BMP180;54819;48.030;14.710;2023-04-01T09:45:01;96381.20;;;16.52
68027;BMP180;54819;48.030;14.710;2023-04-01T10:00:10;96382.00;;;16.80
68027;BMP180;54819;48.030;14.710;2023-04-01T10:24:10;96371.80;;;17.70
68027;BMP180;54819;48.030;14.710;2023-04-01T10:31:23;96370.00;;;17.96
68027;BMP180;54819;48.030;14.710;2023-04-01T10:59:28;96350.00;;;18.50
68027;BMP180;54819;48.030;14.710;2023-04-01T11:18:41;96343.40;;;17.58
68027;BMP180;54819;48.030;14.710;2023-04-01T11:23:54;96337.00;;;17.70
68027;BMP180;54819;48.030;14.710;2023-04-01T11:30:08;96328.40;;;17.90
68027;BMP180;54819;48.030;14.710;2023-04-01T11:36:04;96322.60;;;18.20
68027;BMP180;54819;48.030;14.710;2023-04-01T11:41:52;96316.80;;;18.34
68027;BMP180;54819;48.030;14.710;2023-04-01T11:45:15;96323.80;;;18.30
68027;BMP180;54819;48.030;14.710;2023-04-01T11:53:44;96324.40;;;18.20
68027;BMP180;54819;48.030;14.710;2023-04-01T11:59:37;96314.40;;;18.42
68027;BMP180;54819;48.030;14.710;2023-04-01T12:05:54;96317.80;;;18.50
68027;BMP180;54819;48.030;14.710;2023-04-01T12:14:11;96309.00;;;18.58
68027;BMP180;54819;48.030;14.710;2023-04-01T12:22:51;96297.20;;;18.40
68027;BMP180;54819;48.030;14.710;2023-04-01T12:32:03;96291.00;;;17.90
68027;BMP180;54819;48.030;14.710;2023-04-01T12:49:54;96273.20;;;18.60
68027;BMP180;54819;48.030;14.710;2023-04-01T12:52:57;96279.00;;;18.50
68027;BMP180;54819;48.030;14.710;2023-04-01T12:55:41;96273.40;;;18.50
68027;BMP180;54819;48.030;14.710;2023-04-01T13:07:36;96275.40;;;18.80
68027;BMP180;54819;48.030;14.710;2023-04-01T13:10:50;96300.00;;;18.52
68027;BMP180;54819;48.030;14.710;2023-04-01T13:13:58;96358.40;;;18.18
68027;BMP180;54819;48.030;14.710;2023-04-01T13:28:29;96365.60;;;16.20
68027;BMP180;54819;48.030;14.710;2023-04-01T13:43:23;96359.20;;;16.80
68027;BMP180;54819;48.030;14.710;2023-04-01T13:46:28;96357.00;;;16.90
68027;BMP180;54819;48.030;14.710;2023-04-01T13:52:06;96357.00;;;17.04
68027;BMP180;54819;48.030;14.710;2023-04-01T13:55:16;96353.60;;;17.10
68027;BMP180;54819;48.030;14.710;2023-04-01T14:03:52;96344.60;;;17.38
68027;BMP180;54819;48.030;14.710;2023-04-01T14:12:45;96341.60;;;17.60
68027;BMP180;54819;48.030;14.710;2023-04-01T14:24:22;96351.80;;;17.70
68027;BMP180;54819;48.030;14.710;2023-04-01T14:35:38;96352.80;;;17.30
68027;BMP180;54819;48.030;14.710;2023-04-01T14:38:24;96359.80;;;17.00
68027;BMP180;54819;48.030;14.710;2023-04-01T14:40:55;96362.60;;;16.94
68027;BMP180;54819;48.030;14.710;2023-04-01T14:43:47;96356.60;;;16.98
68027;BMP180;54819;48.030;14.710;2023-04-01T14:49:36;96370.40;;;16.78
68027;BMP180;54819;48.030;14.710;2023-04-01T14:52:15;96374.00;;;16.62
68027;BMP180;54819;48.030;14.710;2023-04-01T14:54:46;96374.00;;;16.60
68027;BMP180;54819;48.030;14.710;2023-04-01T14:57:25;96371.40;;;16.50
68027;BMP180;54819;48.030;14.710;2023-04-01T15:03:32;96373.00;;;16.70
68027;BMP180;54819;48.030;14.710;2023-04-01T15:17:53;96368.80;;;16.80
68027;BMP180;54819;48.030;14.710;2023-04-01T15:20:54;96361.60;;;16.60
68027;BMP180;54819;48.030;14.710;2023-04-01T15:23:48;96376.80;;;16.36
68027;BMP180;54819;48.030;14.710;2023-04-01T15:26:47;96437.20;;;16.20
68027;BMP180;54819;48.030;14.710;2023-04-01T15:29:59;96424.80;;;15.52
68027;BMP180;54819;48.030;14.710;2023-04-01T15:56:26;96454.00;;;14.20
68027;BMP180;54819;48.030;14.710;2023-04-01T16:08:13;96454.60;;;14.50
68027;BMP180;54819;48.030;14.710;2023-04-01T16:10:59;96457.00;;;14.50
68027;BMP180;54819;48.030;14.710;2023-04-01T16:14:24;96457.40;;;14.50
68027;BMP180;54819;48.030;14.710;2023-04-01T16:19:56;96461.40;;;14.42
68027;BMP180;54819;48.030;14.710;2023-04-01T16:22:38;96462.80;;;14.38
68027;BMP180;54819;48.030;14.710;2023-04-01T16:28:38;96468.80;;;14.20
68027;BMP180;54819;48.030;14.710;2023-04-01T16:31:23;96466.80;;;14.10
68027;BMP180;54819;48.030;14.710;2023-04-01T16:34:16;96470.00;;;14.00
68027;BMP180;54819;48.030;14.710;2023-04-01T16:36:55;96464.80;;;13.86
68027;BMP180;54819;48.030;14.710;2023-04-01T16:40:46;96465.60;;;13.70
68027;BMP180;54819;48.030;14.710;2023-04-01T16:43:05;96473.20;;;13.50
68027;BMP180;54819;48.030;14.710;2023-04-01T16:45:43;96482.20;;;13.40
68027;BMP180;54819;48.030;14.710;2023-04-01T16:48:28;96491.60;;;13.40
68027;BMP180;54819;48.030;14.710;2023-04-01T16:51:12;96497.60;;;13.30
68027;BMP180;54819;48.030;14.710;2023-04-01T16:53:46;96503.40;;;13.30
68027;BMP180;54819;48.030;14.710;2023-04-01T16:56:22;96502.80;;;13.26
68027;BMP180;54819;48.030;14.710;2023-04-01T16:59:07;96511.60;;;13.12
68027;BMP180;54819;48.030;14.710;2023-04-01T17:08:01;96511.00;;;12.80
68027;BMP180;54819;48.030;14.710;2023-04-01T17:10:44;96508.40;;;12.80
68027;BMP180;54819;48.030;14.710;2023-04-01T17:13:45;96520.00;;;12.74
68027;BMP180;54819;48.030;14.710;2023-04-01T17:16:44;96523.00;;;12.70
68027;BMP180;54819;48.030;14.710;2023-04-01T17:19:49;96526.00;;;12.60
68027;BMP180;54819;48.030;14.710;2023-04-01T17:22:27;96528.20;;;12.58
68027;BMP180;54819;48.030;14.710;2023-04-01T17:27:59;96529.80;;;12.42
68027;BMP180;54819;48.030;14.710;2023-04-01T17:31:10;96537.20;;;12.30
68027;BMP180;54819;48.030;14.710;2023-04-01T17:36:54;96543.20;;;12.20
68027;BMP180;54819;48.030;14.710;2023-04-01T17:39:46;96546.20;;;12.20
68027;BMP180;54819;48.030;14.710;2023-04-01T17:50:47;96552.40;;;12.10
68027;BMP180;54819;48.030;14.710;2023-04-01T17:53:35;96556.40;;;12.00
68027;BMP180;54819;48.030;14.710;2023-04-01T17:59:16;96563.20;;;12.00
68027;BMP180;54819;48.030;14.710;2023-04-01T18:02:00;96566.40;;;12.00
68027;BMP180;54819;48.030;14.710;2023-04-01T18:08:23;96568.60;;;11.92
68027;BMP180;54819;48.030;14.710;2023-04-01T18:23:23;96577.60;;;11.80
68027;BMP180;54819;48.030;14.710;2023-04-01T18:26:02;96582.20;;;11.80
68027;BMP180;54819;48.030;14.710;2023-04-01T18:33:44;96588.80;;;11.80
68027;BMP180;54819;48.030;14.710;2023-04-01T18:42:19;96585.20;;;11.80
68027;BMP180;54819;48.030;14.710;2023-04-01T18:45:10;96588.20;;;11.80
68027;BMP180;54819;48.030;14.710;2023-04-01T18:51:03;96587.60;;;11.90
68027;BMP180;54819;48.030;14.710;2023-04-01T18:53:57;96591.20;;;11.90
68027;BMP180;54819;48.030;14.710;2023-04-01T18:56:36;96590.40;;;11.90
68027;BMP180;54819;48.030;14.710;2023-04-01T18:59:21;96587.40;;;11.90
68027;BMP180;54819;48.030;14.710;2023-04-01T19:02:22;96589.20;;;11.90
68027;BMP180;54819;48.030;14.710;2023-04-01T19:07:45;96586.00;;;11.90
68027;BMP180;54819;48.030;14.710;2023-04-01T19:13:15;96585.20;;;11.70
68027;BMP180;54819;48.030;14.710;2023-04-01T19:16:23;96590.80;;;11.80
68027;BMP180;54819;48.030;14.710;2023-04-01T19:19:23;96593.00;;;11.80
68027;BMP180;54819;48.030;14.710;2023-04-01T19:27:37;96596.60;;;11.90
68027;BMP180;54819;48.030;14.710;2023-04-01T19:30:54;96595.40;;;11.88
68027;BMP180;54819;48.030;14.710;2023-04-01T19:45:21;96608.00;;;11.70
68027;BMP180;54819;48.030;14.710;2023-04-01T19:48:05;96616.20;;;11.70
68027;BMP180;54819;48.030;14.710;2023-04-01T19:50:47;96613.80;;;11.72
68027;BMP180;54819;48.030;14.710;2023-04-01T19:56:20;96625.40;;;11.70
68027;BMP180;54819;48.030;14.710;2023-04-01T19:59:04;96625.20;;;11.70
68027;BMP180;54819;48.030;14.710;2023-04-01T20:02:01;96627.20;;;11.70
68027;BMP180;54819;48.030;14.710;2023-04-01T20:04:39;96625.60;;;11.70
68027;BMP180;54819;48.030;14.710;2023-04-01T20:07:18;96633.00;;;11.70
68027;BMP180;54819;48.030;14.710;2023-04-01T20:15:41;96630.80;;;11.70
68027;BMP180;54819;48.030;14.710;2023-04-01T20:18:20;96628.00;;;11.70
68027;BMP180;54819;48.030;14.710;2023-04-01T20:21:00;96627.40;;;11.76
68027;BMP180;54819;48.030;14.710;2023-04-01T20:23:59;96628.40;;;11.74
68027;BMP180;54819;48.030;14.710;2023-04-01T20:26:38;96624.40;;;11.70
68027;BMP180;54819;48.030;14.710;2023-04-01T20:32:32;96629.00;;;11.68
68027;BMP180;54819;48.030;14.710;2023-04-01T20:40:42;96636.80;;;11.70
68027;BMP180;54819;48.030;14.710;2023-04-01T20:44:10;96634.40;;;11.70
68027;BMP180;54819;48.030;14.710;2023-04-01T20:47:20;96636.00;;;11.70
68027;BMP180;54819;48.030;14.710;2023-04-01T20:52:56;96638.60;;;11.70
68027;BMP180;54819;48.030;14.710;2023-04-01T20:56:17;96637.20;;;11.70
68027;BMP180;54819;48.030;14.710;2023-04-01T20:58:34;96634.40;;;11.80
68027;BMP180;54819;48.030;14.710;2023-04-01T21:04:28;96642.00;;;11.70
68027;BMP180;54819;48.030;14.710;2023-04-01T21:07:19;96647.60;;;11.80
68027;BMP180;54819;48.030;14.710;2023-04-01T21:10:00;96640.80;;;11.80
68027;BMP180;54819;48.030;14.710;2023-04-01T21:12:53;96643.60;;;11.80
68027;BMP180;54819;48.030;14.710;2023-04-01T21:16:00;96653.60;;;11.80
68027;BMP180;54819;48.030;14.710;2023-04-01T21:18:53;96651.00;;;11.80
68027;BMP180;54819;48.030;14.710;2023-04-01T21:27:16;96660.20;;;11.74
68027;BMP180;54819;48.030;14.710;2023-04-01T21:35:49;96657.20;;;11.64
68027;BMP180;54819;48.030;14.710;2023-04-01T21:41:38;96664.60;;;11.64
68027;BMP180;54819;48.030;14.710;2023-04-01T21:54:24;96670.40;;;11.70
68027;BMP180;54819;48.030;14.710;2023-04-01T22:00:52;96674.00;;;11.68
68027;BMP180;54819;48.030;14.710;2023-04-01T22:07:00;96673.40;;;11.70
68027;BMP180;54819;48.030;14.710;2023-04-01T22:09:41;96670.60;;;11.70
68027;BMP180;54819;48.030;14.710;2023-04-01T22:15:40;96669.20;;;11.78
68027;BMP180;54819;48.030;14.710;2023-04-01T22:18:31;96667.80;;;11.70
68027;BMP180;54819;48.030;14.710;2023-04-01T22:24:44;96668.60;;;11.70
68027;BMP180;54819;48.030;14.710;2023-04-01T22:30:16;96672.20;;;11.80
68027;BMP180;54819;48.030;14.710;2023-04-01T22:33:01;96666.20;;;11.80
68027;BMP180;54819;48.030;14.710;2023-04-01T22:36:10;96673.80;;;11.90
68027;BMP180;54819;48.030;14.710;2023-04-01T22:42:23;96677.40;;;11.90
68027;BMP180;54819;48.030;14.710;2023-04-01T22:48:41;96679.20;;;11.90
68027;BMP180;54819;48.030;14.710;2023-04-01T22:51:43;96686.00;;;11.86
68027;BMP180;54819;48.030;14.710;2023-04-01T22:54:50;96688.80;;;11.90
68027;BMP180;54819;48.030;14.710;2023-04-01T22:57:42;96689.80;;;11.90
68027;BMP180;54819;48.030;14.710;2023-04-01T23:03:33;96696.40;;;12.00
68027;BMP180;54819;48.030;14.710;2023-04-01T23:06:04;96694.00;;;11.92
68027;BMP180;54819;48.030;14.710;2023-04-01T23:11:49;96702.40;;;11.90
68027;BMP180;54819;48.030;14.710;2023-04-01T23:17:12;96707.00;;;11.90
68027;BMP180;54819;48.030;14.710;2023-04-01T23:26:02;96726.20;;;11.80
68027;BMP180;54819;48.030;14.710;2023-04-01T23:28:51;96722.40;;;11.80
68027;BMP180;54819;48.030;14.710;2023-04-01T23:34:21;96731.60;;;11.70
68027;BMP180;54819;48.030;14.710;2023-04-01T23:37:00;96737.40;;;11.64
68027;BMP180;54819;48.030;14.710;2023-04-01T23:39:35;96733.80;;;11.60
68027;BMP180;54819;48.030;14.710;2023-04-01T23:42:07;96739.00;;;11.58
68027;BMP180;54819;48.030;14.710;2023-04-01T23:44:40;96737.00;;;11.50
68027;BMP180;54819;48.030;14.710;2023-04-01T23:47:15;96740.80;;;11.50
68027;BMP180;54819;48.030;14.710;2023-04-01T23:49:47;96737.20;;;11.48
68027;BMP180;54819;48.030;14.710;2023-04-01T23:52:29;96741.60;;;11.40
68027;BMP180;54819;48.030;14.710;2023-04-01T23:55:13;96749.40;;;11.34
68027;BMP180;54819;48.030;14.710;2023-04-01T23:57:40;96748.80;;;11.30
